Time;durP1;ratioP1;P1;durP2;ratioP2;P2;SDS_P1;SDS_P2;PMS_P1;PMS_P2;Temp;Humidity;BMP_temperature;BMP_pressure;BME280_temperature;BME280_humidity;BME280_pressure;Samples;Min_cycle;Max_cycle;Signal;HPM_P1;HPM_P2
2023/03/25 00:00:43;;;;;;;5.30;4.25;;;;;;;;;;4847112;29;20440;-93
2023/03/25 00:03:18;;;;;;;6.07;4.60;;;;;;;;;;4846869;29;20032;-94
2023/03/25 00:05:45;;;;;;;6.15;4.25;;;;;;;;;;4846877;29;20081;-94
2023/03/25 00:08:14;;;;;;;5.35;4.20;;;;;;;;;;4847173;29;20535;-93
2023/03/25 00:10:43;;;;;;;5.28;3.85;;;;;;;;;;4847236;29;20034;-94
2023/03/25 00:13:12;;;;;;;4.30;3.55;;;;;;;;;;4846871;29;20035;-93
2023/03/25 00:16:00;;;;;;;5.10;3.60;;;;;;;;;;4845999;29;20507;-94
2023/03/25 00:21:18;;;;;;;5.25;3.05;;;;;;;;;;4863423;29;20132;-92
2023/03/25 00:23:45;;;;;;;4.78;3.08;;;;;;;;;;4846808;29;20034;-92
2023/03/25 00:32:00;;;;;;;;;;;;;;;;;;4867469;29;20710;-94
2023/03/25 00:34:53;;;;;;;4.82;2.85;;;;;;;;;;4847004;29;19908;-94
2023/03/25 00:37:20;;;;;;;3.90;3.10;;;;;;;;;;4846697;29;20563;-94
2023/03/25 00:39:58;;;;;;;6.78;2.90;;;;;;;;;;4859877;29;20037;-93
2023/03/25 00:42:33;;;;;;;4.15;2.80;;;;;;;;;;4860914;29;20041;-94
2023/03/25 00:45:25;;;;;;;3.72;2.67;;;;;;;;;;4861015;29;20037;-92
2023/03/25 00:47:54;;;;;;;4.07;3.20;;;;;;;;;;4843721;29;20043;-95
2023/03/25 00:50:26;;;;;;;4.80;3.38;;;;;;;;;;4860895;29;20041;-93
2023/03/25 00:52:55;;;;;;;3.70;3.20;;;;;;;;;;4860779;29;20030;-93
2023/03/25 00:55:35;;;;;;;4.68;3.40;;;;;;;;;;4860578;29;20046;-94
2023/03/25 00:58:04;;;;;;;3.25;2.83;;;;;;;;;;4860647;29;20083;-92
2023/03/25 01:00:49;;;;;;;3.72;3.10;;;;;;;;;;4862119;29;20078;-94
2023/03/25 01:03:56;;;;;;;4.15;3.00;;;;;;;;;;4860785;29;20033;-93
2023/03/25 01:06:33;;;;;;;3.38;2.80;;;;;;;;;;4860385;29;20049;-93
2023/03/25 01:09:12;;;;;;;4.68;3.20;;;;;;;;;;4859645;29;20049;-94
2023/03/25 01:11:42;;;;;;;3.70;3.13;;;;;;;;;;4848637;29;20037;-95
2023/03/25 01:14:26;;;;;;;3.42;3.00;;;;;;;;;;4844814;29;20033;-93
2023/03/25 01:17:00;;;;;;;4.82;3.35;;;;;;;;;;4843917;29;20060;-94
2023/03/25 01:19:30;;;;;;;3.08;2.50;;;;;;;;;;4845335;29;20022;-94
2023/03/25 01:22:05;;;;;;;5.72;2.92;;;;;;;;;;4845487;29;20105;-95
2023/03/25 01:24:37;;;;;;;3.70;2.60;;;;;;;;;;4845862;29;20101;-93
2023/03/25 01:27:13;;;;;;;6.10;2.88;;;;;;;;;;4844820;29;20029;-94
2023/03/25 01:29:42;;;;;;;4.07;2.80;;;;;;;;;;4845671;29;20038;-94
2023/03/25 01:32:09;;;;;;;4.55;3.13;;;;;;;;;;4845628;29;20022;-94
2023/03/25 01:34:38;;;;;;;3.60;3.10;;;;;;;;;;4845606;29;20130;-95
2023/03/25 01:37:19;;;;;;;4.43;2.83;;;;;;;;;;4845534;29;20053;-94
2023/03/25 01:42:26;;;;;;;3.10;2.50;;;;;;;;;;5032204;23;20117;-93
2023/03/25 02:12:11;;;;;;;2.67;2.20;;;;;;;;;;4880341;29;20058;-94
2023/03/25 02:18:01;;;;;;;4.07;2.30;;;;;;;;;;4860191;29;20056;-95
2023/03/25 02:26:55;;;;;;;3.08;2.20;;;;;;;;;;4880351;29;20094;-94
2023/03/25 02:54:06;;;;;;;2.53;1.83;;;;;;;;;;4844897;29;20633;-92
2023/03/25 03:13:03;;;;;;;3.33;2.25;;;;;;;;;;4224060;23;20090;-94
2023/03/25 03:48:37;;;;;;;2.95;2.30;;;;;;;;;;4901347;29;20073;-94
2023/03/25 03:51:30;;;;;;;4.45;2.85;;;;;;;;;;4882271;29;20119;-94
2023/03/25 03:54:05;;;;;;;3.40;2.30;;;;;;;;;;4880888;29;20123;-94
2023/03/25 03:56:40;;;;;;;3.22;2.42;;;;;;;;;;4883988;29;20045;-94
2023/03/25 03:59:17;;;;;;;3.08;2.25;;;;;;;;;;4884234;29;20032;-94
2023/03/25 04:02:04;;;;;;;4.85;2.60;;;;;;;;;;4884363;29;20519;-93
2023/03/25 04:04:37;;;;;;;3.03;2.25;;;;;;;;;;4884014;29;20037;-93
2023/03/25 04:07:14;;;;;;;4.18;2.95;;;;;;;;;;4860948;29;20174;-94
2023/03/25 04:09:56;;;;;;;3.47;2.30;;;;;;;;;;4846330;29;20037;-94
2023/03/25 04:12:47;;;;;;;3.20;2.17;;;;;;;;;;4846141;29;20080;-93
2023/03/25 04:15:19;;;;;;;3.70;2.17;;;;;;;;;;4845638;29;20105;-93
2023/03/25 04:24:07;;;;;;;3.92;2.20;;;;;;;;;;4861851;29;20514;-94
2023/03/25 04:26:56;;;;;;;4.55;2.33;;;;;;;;;;4849652;29;20109;-92
2023/03/25 04:42:48;;;;;;;4.68;2.58;;;;;;;;;;4859919;29;20057;-93
2023/03/25 04:45:27;;;;;;;3.35;2.58;;;;;;;;;;4880748;29;20202;-95
2023/03/25 04:47:54;;;;;;;3.03;2.55;;;;;;;;;;4880467;29;20041;-94
2023/03/25 04:50:24;;;;;;;3.63;2.60;;;;;;;;;;4880401;29;20032;-94
2023/03/25 04:52:51;;;;;;;3.55;2.75;;;;;;;;;;4880063;29;20491;-93
2023/03/25 04:55:21;;;;;;;3.20;2.40;;;;;;;;;;4879466;29;20124;-95
2023/03/25 04:57:51;;;;;;;3.38;2.55;;;;;;;;;;4880004;29;20128;-94
2023/03/25 05:00:27;;;;;;;3.20;2.45;;;;;;;;;;4879991;29;20108;-96
2023/03/25 05:03:00;;;;;;;3.30;2.30;;;;;;;;;;4879642;29;20478;-94
2023/03/25 05:05:32;;;;;;;3.17;2.30;;;;;;;;;;4878154;29;20033;-95
2023/03/25 05:19:43;;;;;;;2.70;2.10;;;;;;;;;;4899556;29;20106;-93
2023/03/25 06:24:21;;;;;;;6.15;1.38;;;;;;;;;;4908497;29;20056;-93
2023/03/25 06:26:53;;;;;;;2.42;1.65;;;;;;;;;;4882627;29;20080;-94
2023/03/25 06:29:21;;;;;;;2.30;1.48;;;;;;;;;;4882033;29;20551;-94
2023/03/25 06:31:54;;;;;;;5.05;2.00;;;;;;;;;;4881822;29;20025;-92
2023/03/25 06:34:26;;;;;;;3.38;1.83;;;;;;;;;;4881999;29;20103;-92
2023/03/25 06:36:58;;;;;;;2.58;1.45;;;;;;;;;;4881770;29;20041;-94
2023/03/25 06:39:33;;;;;;;2.88;1.40;;;;;;;;;;4881949;29;20033;-90
2023/03/25 06:42:03;;;;;;;3.78;1.83;;;;;;;;;;4961052;23;20055;-93
2023/03/25 06:44:35;;;;;;;2.85;1.67;;;;;;;;;;4882212;29;20043;-94
2023/03/25 06:47:07;;;;;;;2.53;1.67;;;;;;;;;;5101339;23;20051;-92
2023/03/25 06:49:39;;;;;;;3.15;1.55;;;;;;;;;;4883581;29;20025;-95
2023/03/25 06:55:13;;;;;;;3.08;1.50;;;;;;;;;;5069397;23;20139;-93
2023/03/25 06:57:42;;;;;;;3.77;1.73;;;;;;;;;;4867205;29;20036;-95
2023/03/25 07:00:22;;;;;;;2.95;1.50;;;;;;;;;;4882543;29;20382;-94
2023/03/25 07:02:54;;;;;;;3.85;1.38;;;;;;;;;;4878214;29;20047;-96
2023/03/25 09:41:47;;;;;;;3.08;1.17;;;;;;;;;;4922008;29;20046;-96
2023/03/25 09:44:24;;;;;;;3.55;1.30;;;;;;;;;;4904733;29;20088;-96
2023/03/25 09:46:54;;;;;;;4.28;1.05;;;;;;;;;;4904268;29;20517;-96
2023/03/25 09:49:26;;;;;;;4.10;1.45;;;;;;;;;;4907237;29;20481;-95
2023/03/25 10:01:31;;;;;;;5.78;1.55;;;;;;;;;;4887927;29;20033;-96
2023/03/25 10:59:33;;;;;;;2.90;0.90;;;;;;;;;;4887616;29;20040;-92
2023/03/25 11:04:37;;;;;;;3.95;0.90;;;;;;;;;;5209727;23;20122;-95
2023/03/25 11:43:16;;;;;;;2.92;0.93;;;;;;;;;;5511109;23;20195;-95
2023/03/25 12:43:51;;;;;;;2.60;0.63;;;;;;;;;;5813919;23;20041;-96
2023/03/25 12:57:28;;;;;;;4.22;1.63;;;;;;;;;;5344806;23;20051;-96
2023/03/25 13:03:30;;;;;;;6.07;1.60;;;;;;;;;;4916249;29;20073;-95
2023/03/25 15:43:11;;;;;;;3.55;0.60;;;;;;;;;;5043381;23;20078;31
2023/03/25 15:48:44;;;;;;;;;;;;;;;;;;;;;
2023/03/25 15:51:31;;;;;;;2.08;1.00;;;;;;;;;;4929004;29;20087;-94
2023/03/25 15:54:14;;;;;;;2.22;0.80;;;;;;;;;;4913941;29;20032;-96
2023/03/25 15:57:12;;;;;;;;;;;;;;;;;;;;;
2023/03/25 15:59:56;;;;;;;2.42;1.08;;;;;;;;;;4912980;29;20128;-95
2023/03/25 16:02:44;;;;;;;2.45;1.00;;;;;;;;;;4932076;29;20032;-95
2023/03/25 16:05:21;;;;;;;3.05;1.30;;;;;;;;;;4933708;29;20023;-96
2023/03/25 16:08:16;;;;;;;1.65;0.40;;;;;;;;;;4914269;29;20134;-96
2023/03/25 16:23:38;;;;;;;2.63;0.75;;;;;;;;;;4919739;29;20062;-92
2023/03/25 16:26:05;;;;;;;3.90;1.10;;;;;;;;;;4903508;29;20111;-95
2023/03/25 16:28:33;;;;;;;3.90;1.13;;;;;;;;;;4910504;29;20089;-92
2023/03/25 16:31:01;;;;;;;2.35;1.00;;;;;;;;;;4904085;29;20032;-93
2023/03/25 16:39:23;;;;;;;2.53;0.73;;;;;;;;;;4905701;29;20158;-95
2023/03/25 16:42:05;;;;;;;4.50;1.05;;;;;;;;;;4891212;29;20061;-96
2023/03/25 16:44:32;;;;;;;2.63;0.90;;;;;;;;;;4913253;29;20036;-96
2023/03/25 16:47:10;;;;;;;2.35;0.70;;;;;;;;;;4912370;29;20036;-96
2023/03/25 16:49:39;;;;;;;11.55;4.13;;;;;;;;;;4914899;29;20028;-95
2023/03/25 16:52:21;;;;;;;55.13;24.23;;;;;;;;;;4930528;29;20127;-95
2023/03/25 16:54:53;;;;;;;72.22;41.92;;;;;;;;;;4912018;29;20397;-95
2023/03/25 16:57:20;;;;;;;106.93;63.95;;;;;;;;;;4908772;29;20044;-96
2023/03/25 16:59:47;;;;;;;79.13;48.70;;;;;;;;;;4910120;29;20036;-95
2023/03/25 17:02:26;;;;;;;86.03;50.25;;;;;;;;;;4909004;29;20035;-94
2023/03/25 17:04:53;;;;;;;195.52;93.07;;;;;;;;;;4908721;29;20041;-92
2023/03/25 17:07:28;;;;;;;237.45;124.95;;;;;;;;;;4906771;29;20034;-92
2023/03/25 17:09:57;;;;;;;146.57;66.53;;;;;;;;;;4912140;29;20024;-95
2023/03/25 17:12:25;;;;;;;80.78;41.03;;;;;;;;;;4910131;29;20434;-94
2023/03/25 17:14:54;;;;;;;113.43;53.40;;;;;;;;;;4892164;29;20032;-95
2023/03/25 17:17:49;;;;;;;118.65;53.78;;;;;;;;;;4906548;29;20047;-95
2023/03/25 17:20:18;;;;;;;152.65;65.82;;;;;;;;;;4911850;29;20028;-96
2023/03/25 17:26:20;;;;;;;36.00;16.70;;;;;;;;;;4933501;29;20038;-96
2023/03/25 17:36:06;;;;;;;;;;;;;;;;;;;;;
2023/03/25 17:39:00;;;;;;;;;;;;;;;;;;;;;
2023/03/25 18:02:16;;;;;;;3.38;0.70;;;;;;;;;;5526955;23;20097;31
2023/03/25 18:04:42;;;;;;;1.23;0.40;;;;;;;;;;5549645;23;20995;-94
2023/03/25 18:12:20;;;;;;;4.30;0.30;;;;;;;;;;5159169;23;20079;-95
2023/03/25 18:17:35;;;;;;;4.47;0.50;;;;;;;;;;5260798;23;20090;-95
2023/03/25 18:23:05;;;;;;;3.35;1.08;;;;;;;;;;4942008;23;20084;-93
2023/03/25 18:25:32;;;;;;;3.10;0.47;;;;;;;;;;4874700;29;20077;-94
2023/03/25 18:28:01;;;;;;;2.17;0.80;;;;;;;;;;4924647;23;20026;-96
2023/03/25 18:30:28;;;;;;;2.25;0.60;;;;;;;;;;5174518;23;20058;-95
2023/03/25 18:32:56;;;;;;;2.70;1.00;;;;;;;;;;4923732;23;20135;-95
2023/03/25 18:35:28;;;;;;;2.05;0.60;;;;;;;;;;4897065;29;20028;-95
2023/03/25 18:43:39;;;;;;;1.95;0.50;;;;;;;;;;5258531;23;20073;-95
2023/03/25 18:46:05;;;;;;;2.00;0.82;;;;;;;;;;4801177;29;20043;-96
2023/03/25 18:48:49;;;;;;;1.30;0.50;;;;;;;;;;4820600;29;21191;-96
2023/03/25 18:54:43;;;;;;;0.75;0.30;;;;;;;;;;4890244;29;20044;-96
2023/03/25 18:57:10;;;;;;;2.28;0.70;;;;;;;;;;5384982;23;20030;-94
2023/03/25 19:05:19;;;;;;;0.90;0.20;;;;;;;;;;5176051;23;20096;-96
